createdAt,value
2023-02-14T00:01:40.336Z,79.73
2023-02-14T00:04:48.323Z,79.69
2023-02-14T00:07:54.600Z,79.74
2023-02-14T00:11:00.961Z,79.82
2023-02-14T00:14:25.549Z,79.65
2023-02-14T00:17:31.808Z,79.77
2023-02-14T00:20:38.036Z,79.72
2023-02-14T00:23:44.246Z,79.76
2023-02-14T00:26:51.246Z,79.70
2023-02-14T00:30:02.215Z,79.65
2023-02-14T00:33:08.476Z,79.82
2023-02-14T00:36:15.209Z,79.71
2023-02-14T00:39:22.447Z,79.80
2023-02-14T00:42:28.713Z,79.83
2023-02-14T00:45:35.108Z,79.82
2023-02-14T00:48:41.428Z,79.73
2023-02-14T00:51:47.714Z,79.74
2023-02-14T00:54:52.332Z,79.61
2023-02-14T00:57:58.499Z,79.60
2023-02-14T01:01:04.897Z,79.61
2023-02-14T01:04:11.192Z,79.64
2023-02-14T01:07:17.438Z,79.74
2023-02-14T01:10:24.049Z,79.78
2023-02-14T01:13:30.317Z,79.97
2023-02-14T01:16:37.164Z,79.84
2023-02-14T01:19:43.447Z,79.90
2023-02-14T01:22:49.694Z,79.92
2023-02-14T01:25:54.183Z,79.94
2023-02-14T01:29:00.410Z,79.99
2023-02-14T01:32:06.918Z,80.11
2023-02-14T01:35:13.898Z,80.06
2023-02-14T01:38:20.065Z,79.92
2023-02-14T01:41:27.798Z,80.02
2023-02-14T01:45:00.110Z,80.07
2023-02-14T01:48:06.593Z,80.02
2023-02-14T01:51:11.265Z,80.08
2023-02-14T01:54:18.453Z,80.16
2023-02-14T01:57:30.261Z,80.11
2023-02-14T02:00:54.540Z,80.10
2023-02-14T02:04:04.620Z,79.97
2023-02-14T02:07:16.116Z,80.15
2023-02-14T02:10:22.588Z,80.15
2023-02-14T02:13:28.755Z,80.24
2023-02-14T02:16:48.344Z,80.24
2023-02-14T02:20:48.510Z,80.17
2023-02-14T02:24:31.519Z,80.21
2023-02-14T02:28:04.626Z,80.22
2023-02-14T02:31:32.750Z,80.26
2023-02-14T02:35:17.242Z,80.29
2023-02-14T02:38:41.907Z,80.18
2023-02-14T02:41:57.100Z,80.24
2023-02-14T02:45:13.263Z,80.23
2023-02-14T02:48:24.256Z,80.12
2023-02-14T02:51:57.619Z,80.24
2023-02-14T02:55:09.168Z,80.13
2023-02-14T02:58:15.518Z,80.18
2023-02-14T03:01:22.192Z,80.30
2023-02-14T03:04:47.189Z,80.27
2023-02-14T03:07:53.737Z,80.35
2023-02-14T03:11:01.156Z,80.22
2023-02-14T03:14:21.110Z,80.24
2023-02-14T03:17:36.797Z,80.26
2023-02-14T03:20:51.156Z,80.14
2023-02-14T03:24:05.650Z,80.33
2023-02-14T03:27:21.823Z,80.31
2023-02-14T03:30:31.474Z,80.26
2023-02-14T03:33:48.042Z,80.31
2023-02-14T03:37:01.917Z,80.39
2023-02-14T03:40:15.443Z,80.30
2023-02-14T03:43:25.970Z,80.33
2023-02-14T03:46:36.813Z,80.35
2023-02-14T03:49:48.265Z,80.25
2023-02-14T03:52:55.721Z,80.27
2023-02-14T03:56:09.907Z,80.30
2023-02-14T03:59:18.579Z,80.37
2023-02-14T04:02:31.706Z,80.34
2023-02-14T04:05:38.617Z,80.33
2023-02-14T04:08:44.865Z,80.43
2023-02-14T04:11:51.564Z,80.34
2023-02-14T04:14:57.868Z,80.27
2023-02-14T04:18:19.584Z,80.30
2023-02-14T04:21:25.882Z,80.43
2023-02-14T04:24:30.597Z,80.43
2023-02-14T04:27:36.820Z,80.37
2023-02-14T04:30:43.176Z,80.34
2023-02-14T04:33:48.337Z,80.52
2023-02-14T04:36:54.843Z,80.44
2023-02-14T04:40:01.085Z,80.48
2023-02-14T04:43:08.243Z,80.40
2023-02-14T04:46:14.776Z,80.45
2023-02-14T04:49:21.207Z,80.38
2023-02-14T04:52:25.765Z,80.43
2023-02-14T04:55:32.251Z,80.41
2023-02-14T04:58:38.594Z,80.42
2023-02-14T05:01:43.458Z,80.39
2023-02-14T05:04:49.982Z,80.41
2023-02-14T05:07:56.299Z,80.37
2023-02-14T05:11:01.129Z,80.49
2023-02-14T05:14:10.103Z,80.52
2023-02-14T05:17:16.405Z,80.51
2023-02-14T05:20:21.015Z,80.63
2023-02-14T05:23:27.236Z,80.63
2023-02-14T05:26:33.973Z,80.50
2023-02-14T05:29:40.246Z,80.46
2023-02-14T05:32:44.722Z,80.52
2023-02-14T05:35:51.109Z,80.55
2023-02-14T05:38:55.745Z,80.60
2023-02-14T05:42:02.050Z,80.54
2023-02-14T05:45:07.305Z,80.59
2023-02-14T05:48:13.483Z,80.64
2023-02-14T05:51:19.780Z,80.68
2023-02-14T05:54:24.292Z,80.75
2023-02-14T05:57:30.697Z,80.71
2023-02-14T06:00:38.413Z,80.56
2023-02-14T06:03:46.240Z,80.58
2023-02-14T06:06:50.824Z,80.56
2023-02-14T06:09:57.109Z,80.67
2023-02-14T06:13:01.678Z,80.54
2023-02-14T06:16:08.905Z,80.60
2023-02-14T06:19:15.018Z,80.52
2023-02-14T06:22:21.578Z,80.50
2023-02-14T06:25:28.211Z,80.44
2023-02-14T06:28:34.485Z,80.57
2023-02-14T06:31:40.837Z,80.62
2023-02-14T06:34:47.191Z,80.59
2023-02-14T06:37:53.585Z,80.55
2023-02-14T06:41:06.329Z,80.48
2023-02-14T06:44:12.791Z,80.54
2023-02-14T06:47:17.293Z,80.48
2023-02-14T06:50:23.595Z,80.51
2023-02-14T06:53:28.407Z,80.37
2023-02-14T06:56:34.642Z,80.28
2023-02-14T06:59:40.905Z,80.48
2023-02-14T07:02:47.483Z,80.45
2023-02-14T07:05:54.757Z,80.43
2023-02-14T07:09:01.076Z,80.34
2023-02-14T07:12:05.604Z,80.20
2023-02-14T07:15:14.978Z,80.27
2023-02-14T07:18:21.243Z,80.27
2023-02-14T07:21:27.461Z,80.25
2023-02-14T07:24:33.731Z,80.19
2023-02-14T07:27:40.732Z,80.22
2023-02-14T07:30:46.952Z,80.24
2023-02-14T07:33:51.463Z,80.21
2023-02-14T07:36:57.809Z,80.10
2023-02-14T07:40:02.954Z,80.12
2023-02-14T07:43:09.617Z,80.09
2023-02-14T07:46:17.551Z,79.97
2023-02-14T07:49:24.152Z,80.07
2023-02-14T07:52:30.471Z,80.22
2023-02-14T07:55:34.963Z,80.16
2023-02-14T07:58:41.210Z,80.05
2023-02-14T08:01:47.759Z,80.06
2023-02-14T08:04:54.046Z,80.13
2023-02-14T08:07:58.534Z,80.08
2023-02-14T08:11:05.154Z,80.04
2023-02-14T08:14:11.526Z,80.12
2023-02-14T08:17:16.018Z,80.00
2023-02-14T08:20:22.406Z,79.94
2023-02-14T08:23:26.788Z,79.95
2023-02-14T08:26:33.796Z,80.06
2023-02-14T08:29:40.121Z,79.93
2023-02-14T08:32:44.650Z,79.83
2023-02-14T08:35:52.251Z,79.87
2023-02-14T08:38:58.708Z,79.91
2023-02-14T08:42:05.348Z,79.81
2023-02-14T08:45:12.738Z,79.81
2023-02-14T08:48:19.030Z,79.82
2023-02-14T08:51:24.074Z,79.76
2023-02-14T08:54:30.317Z,79.78
2023-02-14T08:57:35.135Z,79.76
2023-02-14T09:00:41.619Z,79.82
2023-02-14T09:03:48.039Z,79.68
2023-02-14T09:06:52.635Z,79.71
2023-02-14T09:09:58.956Z,79.70
2023-02-14T09:13:03.731Z,79.63
2023-02-14T09:16:11.999Z,79.69
2023-02-14T09:19:18.425Z,79.71
2023-02-14T09:22:22.955Z,79.55
2023-02-14T09:25:29.214Z,79.65
2023-02-14T09:28:35.408Z,79.53
2023-02-14T09:31:40.210Z,79.48
2023-02-14T09:35:04.270Z,79.53
2023-02-14T09:38:11.293Z,79.47
2023-02-14T09:41:50.681Z,79.48
2023-02-14T09:45:00.794Z,79.57
2023-02-14T09:48:13.874Z,79.44
2023-02-14T09:51:23.440Z,79.39
2023-02-14T09:54:31.641Z,79.42
2023-02-14T09:57:46.998Z,79.31
2023-02-14T10:01:00.874Z,79.12
2023-02-14T10:04:22.620Z,79.25
2023-02-14T10:07:34.979Z,79.24
2023-02-14T10:10:44.188Z,79.15
2023-02-14T10:13:54.737Z,79.04
2023-02-14T10:17:07.016Z,78.92
2023-02-14T10:20:22.141Z,78.90
2023-02-14T10:23:35.696Z,78.91
2023-02-14T10:26:42.980Z,79.05
2023-02-14T10:29:49.320Z,78.97
2023-02-14T10:32:58.974Z,78.80
2023-02-14T10:36:12.264Z,78.79
2023-02-14T10:39:47.373Z,78.67
2023-02-14T10:43:00.005Z,78.76
2023-02-14T10:46:17.786Z,78.62
2023-02-14T10:49:41.719Z,78.56
2023-02-14T10:52:59.199Z,78.42
2023-02-14T10:56:09.997Z,78.41
2023-02-14T10:59:23.497Z,78.48
2023-02-14T11:02:41.624Z,78.40
2023-02-14T11:05:49.770Z,78.24
2023-02-14T11:08:57.363Z,78.00
2023-02-14T11:12:03.929Z,77.85
2023-02-14T11:15:21.583Z,77.85
2023-02-14T11:18:33.022Z,77.91
2023-02-14T11:21:42.555Z,77.83
2023-02-14T11:24:48.830Z,77.56
2023-02-14T11:27:56.292Z,77.60
2023-02-14T11:31:03.565Z,77.60
2023-02-14T11:34:26.263Z,77.51
2023-02-14T11:37:37.581Z,77.51
2023-02-14T11:40:43.877Z,77.44
2023-02-14T11:43:49.423Z,77.47
2023-02-14T11:46:57.253Z,77.28
2023-02-14T11:50:06.662Z,77.19
2023-02-14T11:53:14.399Z,77.23
2023-02-14T11:56:22.370Z,77.05
2023-02-14T11:59:37.556Z,77.02
2023-02-14T12:02:45.822Z,76.92
2023-02-14T12:05:57.379Z,76.82
2023-02-14T12:09:25.363Z,76.85
2023-02-14T12:12:31.681Z,76.74
2023-02-14T12:15:40.740Z,76.79
2023-02-14T12:18:57.881Z,76.82
2023-02-14T12:22:07.362Z,76.61
2023-02-14T12:25:18.016Z,76.68
2023-02-14T12:28:30.931Z,76.66
2023-02-14T12:31:37.102Z,76.65
2023-02-14T12:34:41.720Z,76.63
2023-02-14T12:38:04.629Z,76.45
2023-02-14T12:41:26.023Z,76.52
2023-02-14T12:44:45.079Z,76.67
2023-02-14T12:48:01.126Z,76.53
2023-02-14T12:51:13.154Z,76.14
2023-02-14T12:54:34.926Z,76.34
2023-02-14T12:57:51.059Z,76.37
2023-02-14T13:01:04.267Z,76.09
2023-02-14T13:04:33.299Z,76.14
2023-02-14T13:08:06.093Z,76.18
2023-02-14T13:11:25.386Z,76.04
2023-02-14T13:14:51.980Z,76.04
2023-02-14T13:18:01.538Z,75.94
2023-02-14T13:21:11.785Z,75.98
2023-02-14T13:24:22.999Z,75.96
2023-02-14T13:27:32.934Z,75.97
2023-02-14T13:30:42.280Z,76.04
2023-02-14T13:33:53.291Z,75.90
2023-02-14T13:37:02.092Z,75.85
2023-02-14T13:40:19.536Z,76.05
2023-02-14T13:43:50.277Z,75.78
2023-02-14T13:46:56.603Z,75.76
2023-02-14T13:50:01.966Z,75.75
2023-02-14T13:53:12.467Z,75.69
2023-02-14T13:56:44.552Z,75.62
2023-02-14T14:00:40.069Z,75.46
2023-02-14T14:04:00.967Z,75.40
2023-02-14T14:07:30.158Z,75.46
2023-02-14T14:10:47.536Z,75.56
2023-02-14T14:14:02.789Z,75.41
2023-02-14T14:17:28.728Z,75.41
2023-02-14T14:20:45.764Z,75.37
2023-02-14T14:24:08.741Z,75.22
2023-02-14T14:27:21.906Z,75.25
2023-02-14T14:30:32.202Z,75.28
2023-02-14T14:33:38.905Z,75.14
2023-02-14T14:36:45.182Z,75.26
2023-02-14T14:39:53.449Z,75.14
2023-02-14T14:43:06.850Z,75.04
2023-02-14T14:46:15.884Z,74.86
2023-02-14T14:49:22.982Z,75.13
2023-02-14T14:52:35.267Z,75.10
2023-02-14T14:55:46.491Z,75.01
2023-02-14T14:58:53.013Z,75.00
2023-02-14T15:01:59.245Z,74.98
2023-02-14T15:05:24.485Z,74.95
2023-02-14T15:08:33.642Z,74.81
2023-02-14T15:11:58.353Z,74.82
2023-02-14T15:15:06.314Z,74.82
2023-02-14T15:18:15.854Z,74.77
2023-02-14T15:21:22.178Z,74.68
2023-02-14T15:24:27.268Z,74.77
2023-02-14T15:27:34.917Z,74.81
2023-02-14T15:30:44.385Z,74.70
2023-02-14T15:33:51.062Z,74.86
2023-02-14T15:37:03.625Z,74.83
2023-02-14T15:40:18.048Z,74.83
2023-02-14T15:43:32.110Z,74.79
2023-02-14T15:46:41.641Z,74.73
2023-02-14T15:49:48.051Z,74.67
2023-02-14T15:52:53.708Z,74.59
2023-02-14T15:56:08.057Z,74.64
2023-02-14T15:59:20.056Z,74.56
2023-02-14T16:02:36.113Z,74.51
2023-02-14T16:05:47.192Z,74.51
2023-02-14T16:08:58.110Z,74.40
2023-02-14T16:12:23.552Z,74.49
2023-02-14T16:15:32.102Z,74.51
2023-02-14T16:18:40.758Z,74.53
2023-02-14T16:21:58.476Z,74.51
2023-02-14T16:25:04.892Z,74.38
2023-02-14T16:28:11.205Z,74.32
2023-02-14T16:31:17.178Z,74.45
2023-02-14T16:34:22.176Z,74.48
2023-02-14T16:37:30.679Z,74.34
2023-02-14T16:40:37.498Z,74.42
2023-02-14T16:43:43.735Z,74.48
2023-02-14T16:46:50.817Z,74.44
2023-02-14T16:49:57.167Z,74.33
2023-02-14T16:53:02.246Z,74.42
2023-02-14T16:56:08.736Z,74.32
2023-02-14T16:59:14.998Z,74.23
2023-02-14T17:02:19.756Z,74.26
2023-02-14T17:05:28.329Z,74.33
2023-02-14T17:08:35.362Z,74.27
2023-02-14T17:11:46.595Z,74.32
2023-02-14T17:14:55.742Z,74.36
2023-02-14T17:18:07.702Z,74.29
2023-02-14T17:21:14.038Z,74.30
2023-02-14T17:24:18.730Z,74.26
2023-02-14T17:27:24.918Z,74.34
2023-02-14T17:30:31.139Z,74.33
2023-02-14T17:33:36.212Z,74.29
2023-02-14T17:36:42.423Z,74.27
2023-02-14T17:39:48.648Z,74.27
2023-02-14T17:42:53.111Z,74.27
2023-02-14T17:45:59.170Z,74.21
2023-02-14T17:49:05.286Z,74.25
2023-02-14T17:52:11.495Z,74.31
2023-02-14T17:55:17.922Z,74.20
2023-02-14T17:58:24.129Z,74.17
2023-02-14T18:01:33.124Z,74.20
2023-02-14T18:04:39.592Z,74.13
2023-02-14T18:07:46.200Z,74.25
2023-02-14T18:10:52.555Z,74.14
2023-02-14T18:13:58.107Z,74.34
2023-02-14T18:17:04.375Z,74.26
2023-02-14T18:20:09.930Z,74.27
2023-02-14T18:23:16.194Z,74.21
2023-02-14T18:26:20.684Z,74.28
2023-02-14T18:29:26.964Z,74.31
2023-02-14T18:32:31.458Z,74.24
2023-02-14T18:35:37.784Z,74.20
2023-02-14T18:38:42.793Z,74.21
2023-02-14T18:41:49.449Z,74.26
2023-02-14T18:44:55.660Z,74.31
2023-02-14T18:48:02.769Z,74.23
2023-02-14T18:51:10.802Z,74.17
2023-02-14T18:54:17.533Z,74.26
2023-02-14T18:57:25.014Z,74.31
2023-02-14T19:00:33.453Z,74.31
2023-02-14T19:03:40.278Z,74.26
2023-02-14T19:06:46.486Z,74.35
2023-02-14T19:09:52.741Z,74.33
2023-02-14T19:12:59.952Z,74.39
2023-02-14T19:16:12.840Z,74.43
2023-02-14T19:19:19.772Z,74.32
2023-02-14T19:22:26.077Z,74.26
2023-02-14T19:25:32.708Z,74.33
2023-02-14T19:28:39.399Z,74.34
2023-02-14T19:31:48.414Z,74.24
2023-02-14T19:34:54.857Z,74.34
2023-02-14T19:38:03.641Z,74.16
2023-02-14T19:41:14.979Z,74.27
2023-02-14T19:44:23.147Z,74.31
2023-02-14T19:47:45.985Z,74.23
2023-02-14T19:50:54.116Z,74.20
2023-02-14T19:54:02.190Z,74.34
2023-02-14T19:57:08.474Z,74.31
2023-02-14T20:00:17.634Z,74.35
2023-02-14T20:03:23.832Z,74.34
2023-02-14T20:06:30.538Z,74.27
2023-02-14T20:09:37.736Z,74.24
2023-02-14T20:12:44.217Z,74.28
2023-02-14T20:15:50.846Z,74.40
2023-02-14T20:18:57.789Z,74.32
2023-02-14T20:22:04.217Z,74.34
2023-02-14T20:25:11.326Z,74.33
2023-02-14T20:28:17.607Z,74.36
2023-02-14T20:31:22.507Z,74.31
2023-02-14T20:34:29.567Z,74.33
2023-02-14T20:37:36.366Z,74.37
2023-02-14T20:40:44.664Z,74.28
2023-02-14T20:43:50.934Z,74.34
2023-02-14T20:46:58.161Z,74.39
2023-02-14T20:50:04.477Z,74.36
2023-02-14T20:53:08.914Z,74.38
2023-02-14T20:56:16.481Z,74.28
2023-02-14T20:59:27.139Z,74.33
2023-02-14T21:02:33.504Z,74.40
2023-02-14T21:05:40.405Z,74.37
2023-02-14T21:08:48.116Z,74.43
2023-02-14T21:11:54.970Z,74.34
2023-02-14T21:15:01.229Z,74.32
2023-02-14T21:18:07.952Z,74.37
2023-02-14T21:21:19.994Z,74.44
2023-02-14T21:24:26.258Z,74.48
2023-02-14T21:27:32.728Z,74.45
2023-02-14T21:30:39.022Z,74.51
2023-02-14T21:33:43.546Z,74.53
2023-02-14T21:36:49.782Z,74.41
2023-02-14T21:39:56.584Z,74.47
2023-02-14T21:43:02.663Z,74.51
2023-02-14T21:46:10.878Z,74.49
2023-02-14T21:49:34.721Z,74.48
2023-02-14T21:52:40.962Z,74.44
2023-02-14T21:55:47.967Z,74.57
2023-02-14T21:58:56.489Z,74.58
2023-02-14T22:02:02.776Z,74.50
2023-02-14T22:05:08.053Z,74.53
2023-02-14T22:08:14.322Z,74.56
2023-02-14T22:11:20.580Z,74.55
2023-02-14T22:14:25.532Z,74.52
2023-02-14T22:17:33.561Z,74.53
2023-02-14T22:20:40.145Z,74.54
2023-02-14T22:23:47.037Z,74.60
2023-02-14T22:26:53.325Z,74.68
2023-02-14T22:29:57.822Z,74.64
2023-02-14T22:33:04.109Z,74.57
2023-02-14T22:36:11.361Z,74.65
2023-02-14T22:39:18.810Z,74.64
2023-02-14T22:42:24.994Z,74.67
2023-02-14T22:45:31.192Z,74.65
2023-02-14T22:48:38.598Z,74.67
2023-02-14T22:51:45.322Z,74.65
2023-02-14T22:54:52.956Z,74.67
2023-02-14T22:57:59.353Z,74.63
2023-02-14T23:01:04.639Z,74.66
2023-02-14T23:04:11.091Z,74.75
2023-02-14T23:07:17.805Z,74.72
2023-02-14T23:10:24.108Z,74.81
2023-02-14T23:13:45.983Z,74.79
2023-02-14T23:17:21.471Z,74.77
2023-02-14T23:20:45.964Z,74.75
2023-02-14T23:23:52.196Z,74.89
2023-02-14T23:26:58.806Z,75.06
2023-02-14T23:30:05.711Z,74.91
2023-02-14T23:33:12.078Z,74.96
2023-02-14T23:36:16.622Z,75.05
2023-02-14T23:39:23.302Z,75.00
2023-02-14T23:42:29.642Z,75.07
2023-02-14T23:45:36.841Z,75.06
2023-02-14T23:48:43.108Z,74.99
2023-02-14T23:51:51.248Z,74.97
2023-02-14T23:54:57.685Z,75.00
2023-02-14T23:58:02.521Z,74.98
